Germanville, Iowa
Current Conditions -  °F | °C
As of 4:15 PM on Thursday 23 Oct 2014 (Local Time) from KFFL Reporting Station
Overcast Overcast  
Wind Chill: 64°   Ceiling: 2400
Heat Index: 64°   Visibility: NA
Dew Point: 57°   Wind: 7mph
Humidity: 77%   Direction: 280°W
Pressure: 30.03"   Gusts: 13mph
Location:  41.1253°N, 91.8296°W
Report Text: KFFL 232115Z AUTO 28006G11KT OVC024 18/14 A3003 RMK AO2
Loading
Personal Weather Stations






























Interactive Weather Map
Tropical Storm Tracking
New forecast layout! Learn more

10-Day Weather Forecast

Advertisements
Track Severe Weather on mobile